Time;durP1;ratioP1;P1;durP2;ratioP2;P2;SDS_P1;SDS_P2;PMS_P1;PMS_P2;Temp;Humidity;BMP_temperature;BMP_pressure;BME280_temperature;BME280_humidity;BME280_pressure;Samples;Min_cycle;Max_cycle;Signal;HPM_P1;HPM_P2
2021/12/18 00:01:27;;;;;;;19.10;9.70;;;;;;;4.88;92.58;100913.22;5037042;28;20325;-65
2021/12/18 00:03:53;;;;;;;15.45;9.02;;;;;;;4.76;92.87;100878.81;5041466;28;20024;-65
2021/12/18 00:06:19;;;;;;;15.05;9.35;;;;;;;4.65;93.16;100921.84;5039800;28;20020;-65
2021/12/18 00:08:45;;;;;;;16.33;7.93;;;;;;;4.49;93.29;100923.81;5042352;28;20021;-65
2021/12/18 00:11:11;;;;;;;14.57;8.32;;;;;;;4.43;94.09;100897.50;5039682;28;20027;-65
2021/12/18 00:13:37;;;;;;;14.75;7.97;;;;;;;4.26;93.94;100914.19;5051893;28;20040;-65
2021/12/18 00:16:04;;;;;;;16.42;8.30;;;;;;;4.13;94.38;100908.38;5043073;28;20021;-65
2021/12/18 00:18:30;;;;;;;15.10;8.40;;;;;;;4.03;95.06;100894.09;5037999;28;20047;-64
2021/12/18 00:20:59;;;;;;;14.93;8.32;;;;;;;3.83;94.31;100905.34;5040570;28;20021;-65
2021/12/18 00:23:26;;;;;;;16.10;7.32;;;;;;;3.72;94.80;100911.81;5043936;28;20017;-65
2021/12/18 00:25:51;;;;;;;13.93;7.93;;;;;;;3.60;94.65;100905.16;5040144;28;20030;-65
2021/12/18 00:28:16;;;;;;;14.38;8.32;;;;;;;3.47;95.39;100895.94;5044248;28;20017;-65
2021/12/18 00:30:42;;;;;;;19.17;8.00;;;;;;;3.43;95.73;100909.66;5043327;28;20010;-65
2021/12/18 00:33:08;;;;;;;15.13;7.97;;;;;;;3.32;95.50;100918.66;5045043;28;20022;-65
2021/12/18 00:35:34;;;;;;;13.20;7.60;;;;;;;3.08;95.89;100901.94;5041307;28;20214;-65
2021/12/18 00:38:04;;;;;;;14.77;8.50;;;;;;;2.89;96.10;100912.31;5046774;28;20035;-65
2021/12/18 00:40:43;;;;;;;12.38;7.65;;;;;;;2.92;96.21;100899.47;5042890;28;20333;-65
2021/12/18 00:43:26;;;;;;;12.77;7.57;;;;;;;2.83;96.20;100883.41;5046433;28;20041;-65
2021/12/18 00:45:52;;;;;;;14.77;7.93;;;;;;;2.75;96.14;100895.16;5040108;28;20083;-65
2021/12/18 00:48:17;;;;;;;13.35;7.90;;;;;;;2.64;96.00;100888.56;5049581;28;20028;-65
2021/12/18 00:50:42;;;;;;;17.48;8.15;;;;;;;2.43;96.24;100884.94;5053082;28;20022;-65
2021/12/18 00:53:08;;;;;;;23.88;11.85;;;;;;;2.44;97.54;100889.34;5059283;28;20032;-65
2021/12/18 00:55:36;;;;;;;18.58;9.60;;;;;;;2.35;97.27;100896.69;5053063;28;20025;-65
2021/12/18 00:58:01;;;;;;;17.35;9.30;;;;;;;2.30;96.91;100907.66;5043616;28;20209;-65
2021/12/18 01:00:26;;;;;;;15.38;8.13;;;;;;;2.27;97.06;100898.00;5041418;28;20029;-65
2021/12/18 01:02:57;;;;;;;22.42;9.95;;;;;;;2.14;96.53;100891.31;5042925;28;20351;-65
2021/12/18 01:05:23;;;;;;;17.13;9.25;;;;;;;2.03;97.21;100891.59;5042915;28;20248;-65
2021/12/18 01:07:48;;;;;;;15.07;9.13;;;;;;;2.00;97.12;100891.44;5043166;28;20025;-65
2021/12/18 01:12:48;;;;;;;19.52;9.65;;;;;;;2.03;97.34;100896.78;5030822;28;20110;-65
2021/12/18 01:15:23;;;;;;;18.27;9.18;;;;;;;1.85;97.44;100891.56;5038059;28;20018;-65
2021/12/18 01:23:18;;;;;;;19.27;10.07;;;;;;;1.76;97.65;100903.19;5042918;28;20085;-65
2021/12/18 01:25:44;;;;;;;20.75;10.00;;;;;;;1.57;97.27;100905.63;5038024;28;20036;-65
2021/12/18 01:28:09;;;;;;;20.15;10.73;;;;;;;1.47;97.47;100896.50;5043336;28;20029;-65
2021/12/18 01:30:35;;;;;;;18.05;9.52;;;;;;;1.51;97.48;100905.31;5043642;28;20041;-65
2021/12/18 01:33:00;;;;;;;19.50;10.73;;;;;;;1.27;98.28;100901.44;5034106;28;20076;-65
2021/12/18 01:35:26;;;;;;;24.63;12.55;;;;;;;1.31;99.01;100914.66;5042738;28;20197;-65
2021/12/18 01:37:51;;;;;;;20.20;10.90;;;;;;;1.31;99.40;100909.47;5047033;28;20282;-65
2021/12/18 01:40:20;;;;;;;21.98;11.23;;;;;;;1.24;99.12;100911.66;5048046;28;20025;-65
2021/12/18 01:53:29;;;;;;;24.30;12.93;;;;;;;1.27;99.88;100932.56;5051939;28;20016;-65
2021/12/18 01:55:55;;;;;;;22.92;12.32;;;;;;;1.15;99.64;100916.34;5042106;28;20036;-64
2021/12/18 01:58:23;;;;;;;21.90;12.02;;;;;;;1.08;99.64;100922.03;5046792;28;20041;-64
2021/12/18 02:00:51;;;;;;;19.90;10.80;;;;;;;1.04;100.00;100925.25;5045326;28;20056;-64
2021/12/18 02:03:17;;;;;;;21.25;11.50;;;;;;;0.97;100.00;100925.72;5046254;28;20021;-64
2021/12/18 02:05:42;;;;;;;20.13;10.90;;;;;;;1.03;100.00;100926.03;5046625;28;20025;-64
2021/12/18 02:08:08;;;;;;;20.42;10.18;;;;;;;0.94;99.28;100915.16;5046238;28;20269;-64
2021/12/18 02:10:52;;;;;;;20.85;10.30;;;;;;;0.97;99.06;100920.53;5046477;28;20014;-64
2021/12/18 02:21:19;;;;;;;23.73;10.27;;;;;;;0.86;100.00;100919.06;5048428;28;20044;-64
2021/12/18 02:23:45;;;;;;;27.90;13.32;;;;;;;0.74;99.85;100913.19;5046261;28;20088;-64
2021/12/18 02:26:11;;;;;;;25.95;15.32;;;;;;;0.99;100.00;100937.06;5041452;28;20029;-64
2021/12/18 02:28:37;;;;;;;35.33;17.67;;;;;;;1.32;100.00;100944.97;5041576;28;20071;-64
2021/12/18 02:31:03;;;;;;;33.55;17.75;;;;;;;1.45;100.00;100943.91;5046564;28;20305;-64
2021/12/18 02:33:29;;;;;;;34.63;18.27;;;;;;;1.49;100.00;100945.88;5046144;28;20029;-64
2021/12/18 02:35:58;;;;;;;34.45;17.60;;;;;;;1.65;100.00;100953.66;5045732;28;20053;-64
2021/12/18 02:38:44;;;;;;;35.70;17.17;;;;;;;1.67;100.00;100952.00;5046234;28;20368;-64
2021/12/18 02:43:48;;;;;;;29.60;15.40;;;;;;;1.83;100.00;100933.81;5038510;28;20039;-64
2021/12/18 02:46:19;;;;;;;30.88;15.75;;;;;;;1.78;100.00;100933.59;5043860;28;20045;-64
2021/12/18 02:48:45;;;;;;;25.15;14.43;;;;;;;1.75;100.00;100919.56;5043534;28;20089;-64
2021/12/18 02:51:11;;;;;;;28.55;15.10;;;;;;;1.65;100.00;100910.41;5037810;28;20014;-64
2021/12/18 02:53:40;;;;;;;37.95;18.02;;;;;;;1.70;100.00;100915.84;5036872;28;20030;-64
2021/12/18 02:56:09;;;;;;;40.58;18.83;;;;;;;1.86;100.00;100923.59;5037025;28;20032;-64
2021/12/18 02:58:39;;;;;;;29.70;15.25;;;;;;;1.80;100.00;100918.09;5045544;28;20082;-64
2021/12/18 03:01:05;;;;;;;26.17;14.00;;;;;;;1.73;100.00;100900.41;5037680;28;20198;-64
2021/12/18 03:03:34;;;;;;;31.10;17.10;;;;;;;1.73;100.00;100903.00;5041624;28;20187;-64
2021/12/18 03:06:29;;;;;;;35.80;17.17;;;;;;;1.82;100.00;100926.84;5043687;28;20076;-64
2021/12/18 03:25:07;;;;;;;23.25;12.25;;;;;;;1.15;99.66;100890.41;5045482;28;20246;-64
2021/12/18 03:27:32;;;;;;;22.95;12.88;;;;;;;1.11;99.68;100878.09;5045298;28;20014;-64
2021/12/18 03:29:58;;;;;;;30.73;13.30;;;;;;;1.12;100.00;100882.47;5045294;28;20367;-64
2021/12/18 03:32:24;;;;;;;27.08;14.80;;;;;;;1.12;99.93;100890.25;5044978;28;20041;-65
2021/12/18 03:34:51;;;;;;;27.45;13.75;;;;;;;1.00;100.00;100894.75;5041175;28;20025;-65
2021/12/18 03:37:17;;;;;;;30.45;13.70;;;;;;;1.00;100.00;100899.94;5044609;28;20104;-65
2021/12/18 03:39:42;;;;;;;22.45;11.93;;;;;;;1.02;100.00;100898.34;5044883;28;20031;-65
2021/12/18 03:42:09;;;;;;;24.55;13.25;;;;;;;0.89;100.00;100890.72;5044746;28;20022;-65
2021/12/18 03:44:35;;;;;;;25.92;13.38;;;;;;;0.94;100.00;100900.50;5045139;28;20018;-65
2021/12/18 03:47:00;;;;;;;28.33;12.30;;;;;;;0.95;100.00;100896.22;5045030;28;20116;-65
2021/12/18 03:49:25;;;;;;;23.35;12.80;;;;;;;0.88;100.00;100904.50;5044649;28;20041;-65
2021/12/18 03:51:51;;;;;;;23.85;13.10;;;;;;;0.91;100.00;100900.34;5043929;28;20013;-65
2021/12/18 03:54:17;;;;;;;24.15;12.57;;;;;;;0.77;100.00;100905.59;5044579;28;20040;-65
2021/12/18 03:56:43;;;;;;;28.20;12.70;;;;;;;0.76;100.00;100903.81;5043822;28;20022;-65
2021/12/18 03:59:08;;;;;;;25.63;12.40;;;;;;;0.78;100.00;100902.19;5044745;28;20364;-65
2021/12/18 04:01:34;;;;;;;24.13;12.95;;;;;;;0.75;100.00;100902.91;5044285;28;20022;-65
2021/12/18 04:03:59;;;;;;;30.95;13.20;;;;;;;0.81;100.00;100907.53;5044326;28;20092;-65
2021/12/18 04:06:25;;;;;;;25.33;12.88;;;;;;;0.89;100.00;100917.50;5044323;28;20022;-65
2021/12/18 04:08:50;;;;;;;27.23;13.45;;;;;;;0.99;100.00;100916.31;5044368;28;20021;-65
2021/12/18 04:11:16;;;;;;;25.92;13.48;;;;;;;1.04;100.00;100912.28;5044123;28;20014;-65
2021/12/18 04:13:45;;;;;;;20.90;11.30;;;;;;;1.09;100.00;100905.63;5044212;28;20048;-65
2021/12/18 04:16:11;;;;;;;24.67;12.30;;;;;;;1.27;100.00;100912.69;5044064;28;20044;-65
2021/12/18 04:18:37;;;;;;;28.00;12.77;;;;;;;1.41;100.00;100923.81;5038662;28;20046;-65
2021/12/18 04:21:02;;;;;;;25.73;13.20;;;;;;;1.28;100.00;100917.09;5040699;28;20317;-65
2021/12/18 04:23:27;;;;;;;27.20;12.82;;;;;;;1.18;100.00;100911.31;5037054;28;20040;-65
2021/12/18 04:25:55;;;;;;;22.27;12.20;;;;;;;1.26;100.00;100910.91;5042708;28;20032;-65
2021/12/18 04:28:20;;;;;;;32.42;14.77;;;;;;;1.46;100.00;100919.78;5039157;28;20261;-65
2021/12/18 04:30:46;;;;;;;30.27;14.63;;;;;;;1.65;100.00;100927.69;5037560;28;20029;-65
2021/12/18 04:33:11;;;;;;;27.85;12.82;;;;;;;1.71;100.00;100934.09;5051149;28;20017;-65
2021/12/18 04:35:37;;;;;;;22.10;11.80;;;;;;;1.69;100.00;100924.44;5043410;28;20060;-65
2021/12/18 04:38:02;;;;;;;23.10;13.05;;;;;;;1.78;100.00;100922.34;5043915;28;20028;-65
2021/12/18 04:40:28;;;;;;;25.77;12.70;;;;;;;1.69;100.00;100908.88;5043131;28;20025;-65
2021/12/18 04:42:54;;;;;;;26.73;13.57;;;;;;;1.80;100.00;100912.91;5035970;28;20028;-65
2021/12/18 04:45:20;;;;;;;23.90;12.68;;;;;;;1.95;100.00;100931.88;5043606;28;20392;-65
2021/12/18 04:47:45;;;;;;;29.08;13.98;;;;;;;1.91;100.00;100906.56;5043680;28;20021;-65
2021/12/18 04:50:10;;;;;;;27.67;13.27;;;;;;;2.11;100.00;100916.25;5043785;28;20021;-65
2021/12/18 04:52:36;;;;;;;26.20;13.35;;;;;;;2.19;100.00;100883.75;5042912;28;20017;-65
2021/12/18 04:55:03;;;;;;;28.75;14.55;;;;;;;2.37;100.00;100904.56;5042144;28;20017;-65
2021/12/18 04:57:29;;;;;;;32.00;13.95;;;;;;;2.56;100.00;100923.69;5042410;28;20084;-65
2021/12/18 04:59:54;;;;;;;26.27;14.00;;;;;;;2.60;100.00;100868.44;5037677;28;20017;-65
2021/12/18 05:02:24;;;;;;;34.08;16.45;;;;;;;2.68;100.00;100893.09;5043497;28;20017;-65
2021/12/18 05:04:51;;;;;;;27.27;13.73;;;;;;;2.76;100.00;100880.47;5043952;28;20033;-65
2021/12/18 05:07:17;;;;;;;27.80;14.05;;;;;;;2.80;100.00;100904.06;5043437;28;20075;-65
2021/12/18 05:09:42;;;;;;;28.33;15.95;;;;;;;2.96;100.00;100869.25;5042943;28;20239;-65
2021/12/18 05:12:09;;;;;;;34.90;14.63;;;;;;;3.02;100.00;100901.66;5043507;28;20197;-65
2021/12/18 05:14:35;;;;;;;24.77;14.25;;;;;;;3.02;100.00;100906.88;5037838;28;20021;-65
2021/12/18 05:17:00;;;;;;;27.85;14.27;;;;;;;3.04;100.00;100878.31;5043468;28;20013;-65
2021/12/18 05:19:26;;;;;;;29.17;14.38;;;;;;;3.08;100.00;100875.94;5043295;28;20029;-65
2021/12/18 05:21:52;;;;;;;32.92;16.38;;;;;;;3.11;100.00;100869.97;5043129;28;20109;-65
2021/12/18 05:24:17;;;;;;;34.22;15.60;;;;;;;3.13;100.00;100892.63;5043484;28;20044;-65
2021/12/18 05:26:42;;;;;;;30.80;15.50;;;;;;;3.20;100.00;100886.88;5043335;28;20268;-65
2021/12/18 05:29:08;;;;;;;30.48;16.25;;;;;;;3.24;100.00;100917.44;5042710;28;20021;-65
2021/12/18 05:31:34;;;;;;;42.72;18.67;;;;;;;3.31;100.00;100890.88;5043146;28;20014;-65
2021/12/18 05:34:02;;;;;;;35.85;17.92;;;;;;;3.34;100.00;100896.22;5043036;28;20076;-65
2021/12/18 05:36:40;;;;;;;44.33;18.90;;;;;;;3.34;100.00;100932.66;5042166;28;20206;-65
2021/12/18 05:39:10;;;;;;;40.35;17.95;;;;;;;3.44;100.00;100902.69;5042576;28;20048;-65
2021/12/18 05:41:37;;;;;;;42.35;20.42;;;;;;;3.46;100.00;100909.78;5039417;28;20029;-65
2021/12/18 05:44:04;;;;;;;40.85;19.83;;;;;;;3.46;100.00;100901.97;5041305;28;20088;-65
2021/12/18 05:46:29;;;;;;;43.60;19.25;;;;;;;3.42;100.00;100936.47;5041799;28;20240;-65
2021/12/18 05:48:55;;;;;;;43.78;20.05;;;;;;;3.54;100.00;100905.78;5032383;28;20025;-65
2021/12/18 05:51:20;;;;;;;39.00;18.85;;;;;;;3.58;100.00;100910.31;5041177;28;20024;-65
2021/12/18 05:53:46;;;;;;;41.92;20.20;;;;;;;3.62;100.00;100909.66;5038723;28;20029;-65
2021/12/18 05:56:12;;;;;;;44.45;20.42;;;;;;;3.62;100.00;100946.09;5037603;28;20041;-65
2021/12/18 05:58:37;;;;;;;45.35;19.30;;;;;;;3.57;100.00;100905.94;5040533;28;20024;-65
2021/12/18 06:01:03;;;;;;;45.15;20.65;;;;;;;3.62;100.00;100914.84;5042579;28;20022;-65
2021/12/18 06:03:28;;;;;;;46.30;21.15;;;;;;;3.59;100.00;100945.97;5041843;28;20021;-65
2021/12/18 06:05:53;;;;;;;44.70;21.10;;;;;;;3.54;100.00;100921.41;5046555;28;20249;-65
2021/12/18 06:08:19;;;;;;;40.83;19.08;;;;;;;3.57;100.00;100931.06;5042685;28;20029;-65
2021/12/18 06:10:44;;;;;;;46.90;21.42;;;;;;;3.55;100.00;100917.97;5042879;28;20248;-65
2021/12/18 06:13:10;;;;;;;42.17;21.17;;;;;;;3.58;100.00;100951.09;5043035;28;20104;-65
2021/12/18 06:15:35;;;;;;;40.88;20.50;;;;;;;3.60;100.00;100911.28;5042195;28;20347;-65
2021/12/18 06:18:01;;;;;;;43.50;20.58;;;;;;;3.64;100.00;100921.00;5042502;28;20068;-65
2021/12/18 06:20:28;;;;;;;45.53;20.65;;;;;;;3.66;100.00;100936.69;5044322;28;20029;-65
2021/12/18 06:22:54;;;;;;;42.45;20.25;;;;;;;3.74;100.00;100936.19;5046569;28;20033;-65
2021/12/18 06:25:19;;;;;;;43.80;20.40;;;;;;;3.75;99.87;100938.00;5046386;28;20202;-65
2021/12/18 06:27:45;;;;;;;41.70;19.08;;;;;;;3.72;100.00;100921.34;5046402;28;20036;-65
2021/12/18 06:30:10;;;;;;;38.95;18.83;;;;;;;3.76;99.88;100950.19;5045986;28;20033;-65
2021/12/18 06:32:37;;;;;;;44.00;19.60;;;;;;;3.78;100.00;100945.94;5046153;28;20018;-65
2021/12/18 06:35:03;;;;;;;40.70;20.30;;;;;;;3.72;99.97;100937.88;5045805;28;20021;-65
2021/12/18 06:37:28;;;;;;;36.25;18.63;;;;;;;3.76;99.84;100933.66;5046184;28;20044;-65
2021/12/18 06:39:53;;;;;;;39.38;19.35;;;;;;;3.77;99.51;100931.13;5049009;28;20021;-65
2021/12/18 06:42:19;;;;;;;36.15;19.13;;;;;;;3.76;99.62;100944.97;5059458;28;20088;-65
2021/12/18 06:44:44;;;;;;;34.72;18.00;;;;;;;3.75;99.11;100947.53;5050994;28;20325;-65
2021/12/18 06:47:10;;;;;;;41.25;18.98;;;;;;;3.75;99.00;100953.63;5049604;28;20033;-65
2021/12/18 06:49:35;;;;;;;37.15;18.23;;;;;;;3.83;99.79;100952.25;5046343;28;20029;-65
2021/12/18 06:52:01;;;;;;;37.47;20.05;;;;;;;3.75;99.62;100951.03;5062727;28;20084;-65
2021/12/18 06:54:26;;;;;;;38.70;19.00;;;;;;;3.78;99.87;100948.56;5061295;28;20313;-65
2021/12/18 06:56:52;;;;;;;43.53;21.05;;;;;;;3.85;99.54;100992.28;5052952;28;20044;-65
2021/12/18 06:59:17;;;;;;;43.00;20.15;;;;;;;3.93;99.62;100962.22;5056831;28;20316;-65
2021/12/18 07:01:44;;;;;;;46.38;20.50;;;;;;;3.96;98.62;100996.25;5056437;28;20341;-65
2021/12/18 07:04:10;;;;;;;44.22;19.13;;;;;;;3.95;98.99;100949.28;5052410;28;20026;-65
2021/12/18 07:06:36;;;;;;;45.13;20.25;;;;;;;3.95;98.63;100937.16;5046001;28;20075;-65
2021/12/18 07:09:02;;;;;;;37.33;19.02;;;;;;;3.90;98.81;100964.69;5047078;28;20032;-65
2021/12/18 07:11:27;;;;;;;41.70;20.98;;;;;;;3.90;99.21;100972.50;5045498;28;20029;-65
2021/12/18 07:13:53;;;;;;;46.30;18.45;;;;;;;4.08;98.90;100960.31;5045260;28;20025;-65
2021/12/18 07:16:18;;;;;;;40.58;19.20;;;;;;;4.00;98.75;101018.13;5045224;28;20025;-65
2021/12/18 07:18:43;;;;;;;43.30;19.38;;;;;;;4.04;98.54;100978.34;5043310;28;20049;-65
2021/12/18 07:21:09;;;;;;;36.05;17.40;;;;;;;4.08;98.23;101007.22;5048622;28;20084;-65
2021/12/18 07:23:34;;;;;;;35.65;17.88;;;;;;;4.05;98.96;101037.47;5047043;28;20029;-65
2021/12/18 07:26:00;;;;;;;36.38;17.88;;;;;;;4.06;98.38;101008.88;5046221;28;20224;-65
2021/12/18 07:28:25;;;;;;;36.40;18.35;;;;;;;4.13;97.87;101030.88;5047426;28;20028;-65
2021/12/18 07:30:51;;;;;;;32.05;15.70;;;;;;;4.20;97.75;101053.75;5044635;28;20028;-65
2021/12/18 07:33:16;;;;;;;34.83;17.02;;;;;;;4.23;97.59;101020.91;5044586;28;20096;-65
2021/12/18 07:35:42;;;;;;;37.13;17.52;;;;;;;4.20;97.23;101023.41;5044307;28;20029;-65
2021/12/18 07:38:08;;;;;;;35.15;17.60;;;;;;;4.23;96.97;101039.16;5045086;28;20217;-65
2021/12/18 07:40:33;;;;;;;32.42;16.83;;;;;;;4.26;97.23;101014.94;5044666;28;20076;-65
2021/12/18 07:42:58;;;;;;;36.30;17.67;;;;;;;4.27;96.95;101014.09;5046629;28;20025;-65
2021/12/18 07:45:24;;;;;;;37.28;17.55;;;;;;;4.18;97.54;101004.19;5045080;28;20072;-65
2021/12/18 07:47:49;;;;;;;42.30;18.20;;;;;;;4.18;97.18;101014.59;5046991;28;20260;-65
2021/12/18 07:50:19;;;;;;;39.40;17.15;;;;;;;4.26;97.09;101008.03;5044566;28;20032;-65
2021/12/18 07:52:48;;;;;;;37.75;17.63;;;;;;;4.28;97.06;101011.56;5043564;28;20095;-65
2021/12/18 07:55:15;;;;;;;40.80;17.98;;;;;;;4.31;97.27;101003.88;5033419;28;20245;-65
2021/12/18 07:57:41;;;;;;;38.63;17.88;;;;;;;4.38;97.32;101013.78;5038750;28;20339;-65
2021/12/18 08:00:10;;;;;;;38.17;17.67;;;;;;;4.32;97.21;101008.28;5033613;28;20018;-66
2021/12/18 08:02:35;;;;;;;37.15;18.17;;;;;;;4.42;96.69;101023.50;5039645;28;20033;-65
2021/12/18 08:05:01;;;;;;;35.10;16.63;;;;;;;4.45;97.04;101010.59;5033588;28;20072;-66
2021/12/18 08:07:27;;;;;;;36.60;17.73;;;;;;;4.42;97.24;101015.66;5036083;28;20021;-66
2021/12/18 08:09:52;;;;;;;37.58;18.33;;;;;;;4.55;96.86;101016.19;5044307;28;20084;-66
2021/12/18 08:12:17;;;;;;;33.08;17.05;;;;;;;4.47;97.12;100972.41;5044732;28;20027;-66
2021/12/18 08:14:43;;;;;;;35.40;17.73;;;;;;;4.45;96.79;101005.38;5044373;28;20021;-66
2021/12/18 08:17:08;;;;;;;37.03;17.58;;;;;;;4.56;96.13;101010.16;5044633;28;20088;-66
2021/12/18 08:19:34;;;;;;;35.03;17.00;;;;;;;4.48;96.98;101005.50;5044411;28;20219;-66
2021/12/18 08:21:59;;;;;;;34.78;18.45;;;;;;;4.53;96.87;101003.09;5044341;28;20214;-66
2021/12/18 08:24:25;;;;;;;39.08;18.92;;;;;;;4.47;96.89;100998.50;5044631;28;20022;-66
2021/12/18 08:26:50;;;;;;;38.28;19.48;;;;;;;4.59;96.95;100997.25;5044903;28;20067;-66
2021/12/18 08:29:15;;;;;;;41.08;19.70;;;;;;;4.57;96.91;100968.47;5044268;28;20321;-66
2021/12/18 08:31:41;;;;;;;34.08;17.92;;;;;;;4.53;96.85;100986.53;5044516;28;20025;-66
2021/12/18 08:34:06;;;;;;;43.28;19.45;;;;;;;4.50;97.17;101003.84;5044423;28;20032;-66
2021/12/18 08:36:32;;;;;;;39.38;18.52;;;;;;;4.62;96.82;101003.44;5044483;28;20022;-66
2021/12/18 08:38:57;;;;;;;37.00;17.77;;;;;;;4.63;96.37;100999.13;5036688;28;20029;-66
2021/12/18 08:41:23;;;;;;;32.58;16.90;;;;;;;4.55;96.41;100998.81;5044143;28;20028;-66
2021/12/18 08:43:49;;;;;;;36.30;18.40;;;;;;;4.82;95.96;100996.47;5043719;28;20293;-66
2021/12/18 08:46:15;;;;;;;37.22;17.05;;;;;;;4.80;95.61;100992.88;5043350;28;20104;-66
2021/12/18 08:48:41;;;;;;;36.47;17.70;;;;;;;4.82;95.48;100986.94;5043092;28;20022;-66
2021/12/18 08:51:06;;;;;;;35.10;18.50;;;;;;;4.81;95.26;100999.91;5043506;28;20052;-66
2021/12/18 08:53:32;;;;;;;32.33;17.15;;;;;;;4.79;95.68;101004.16;5043585;28;20017;-66
2021/12/18 08:55:57;;;;;;;35.17;17.25;;;;;;;4.79;95.61;100997.22;5043509;28;20064;-66
2021/12/18 08:58:22;;;;;;;33.10;17.23;;;;;;;4.75;95.12;100989.22;5043335;28;20025;-66
2021/12/18 09:00:48;;;;;;;38.80;17.65;;;;;;;4.71;96.36;100987.31;5043641;28;20335;-65
2021/12/18 09:03:13;;;;;;;34.88;17.23;;;;;;;4.83;95.81;100987.78;5043087;28;20063;-65
2021/12/18 09:05:39;;;;;;;34.22;18.30;;;;;;;4.93;95.90;100993.44;5042735;28;20335;-66
2021/12/18 09:08:04;;;;;;;35.20;17.60;;;;;;;4.94;95.39;100986.53;5042896;28;20025;-65
2021/12/18 09:10:30;;;;;;;36.45;18.17;;;;;;;5.07;95.11;100984.47;5043258;28;20259;-65
2021/12/18 09:12:55;;;;;;;36.88;17.58;;;;;;;5.10;94.66;100986.31;5045562;28;20029;-65
2021/12/18 09:15:21;;;;;;;32.78;16.90;;;;;;;5.00;94.40;100986.78;5026020;28;20029;-65
2021/12/18 09:17:47;;;;;;;34.30;16.63;;;;;;;5.10;94.33;100992.44;5024004;28;20322;-65
2021/12/18 09:20:13;;;;;;;33.60;17.48;;;;;;;5.11;94.17;100988.06;5031377;28;20021;-66
2021/12/18 09:22:39;;;;;;;28.90;14.82;;;;;;;5.34;94.06;100987.25;5043255;28;20045;-66
2021/12/18 09:25:05;;;;;;;35.42;16.38;;;;;;;5.17;93.56;100985.72;5030522;28;20080;-66
2021/12/18 09:27:32;;;;;;;34.90;16.85;;;;;;;5.07;94.29;100988.78;5036177;28;20028;-66
2021/12/18 09:29:58;;;;;;;30.58;15.52;;;;;;;5.16;94.38;100986.56;5030916;28;20325;-66
2021/12/18 09:32:23;;;;;;;34.20;16.05;;;;;;;5.17;93.86;100985.72;5048911;28;20028;-66
2021/12/18 09:34:49;;;;;;;36.03;16.85;;;;;;;5.29;93.20;100983.59;5041286;28;20029;-66
2021/12/18 09:37:14;;;;;;;36.92;16.73;;;;;;;5.10;93.06;100983.69;5043219;28;20030;-66
2021/12/18 09:39:40;;;;;;;35.72;17.48;;;;;;;4.97;93.33;100976.22;5043123;28;20025;-66
2021/12/18 09:42:06;;;;;;;32.25;16.02;;;;;;;5.23;92.87;100975.50;5040674;28;20025;-66
2021/12/18 09:44:34;;;;;;;34.58;17.33;;;;;;;5.29;92.74;100940.09;5023886;28;20018;-66
2021/12/18 09:47:00;;;;;;;35.92;17.70;;;;;;;5.27;93.16;100972.19;5040631;28;20033;-66
2021/12/18 09:49:26;;;;;;;33.28;17.33;;;;;;;5.36;92.92;100968.22;5045655;28;20064;-66
2021/12/18 09:51:52;;;;;;;34.80;17.10;;;;;;;5.57;91.98;100969.00;5043117;28;20056;-66
2021/12/18 09:54:19;;;;;;;33.00;17.33;;;;;;;5.54;91.92;100963.66;5032442;28;20032;-66
2021/12/18 09:56:45;;;;;;;33.08;16.30;;;;;;;5.64;91.64;100975.38;5047142;28;20025;-66
2021/12/18 09:59:11;;;;;;;31.48;15.70;;;;;;;5.67;91.52;100972.88;5047345;28;20053;-66
2021/12/18 10:01:36;;;;;;;31.05;16.25;;;;;;;5.87;91.09;100961.44;5047281;28;20024;-66
2021/12/18 10:04:04;;;;;;;32.90;15.57;;;;;;;5.82;90.27;100965.63;5043056;28;20213;-66
2021/12/18 10:06:40;;;;;;;34.53;16.20;;;;;;;5.71;90.47;100951.22;5046877;28;20025;-66
2021/12/18 10:09:16;;;;;;;33.67;16.98;;;;;;;5.80;90.87;100952.47;5047050;28;20336;-66
2021/12/18 10:11:49;;;;;;;33.72;16.02;;;;;;;6.03;90.50;100955.94;5047062;28;20030;-66
2021/12/18 10:14:16;;;;;;;37.80;17.10;;;;;;;6.02;90.76;100948.94;5046883;28;20017;-66
2021/12/18 10:16:45;;;;;;;31.42;16.67;;;;;;;5.93;90.45;100940.75;5047057;28;20043;-66
2021/12/18 10:19:26;;;;;;;30.75;15.15;;;;;;;6.04;90.85;100953.38;5046723;28;20037;-66
2021/12/18 10:21:57;;;;;;;28.88;15.75;;;;;;;6.12;89.60;100951.03;5047128;28;20035;-66
2021/12/18 10:24:23;;;;;;;32.70;17.30;;;;;;;6.04;90.03;100949.84;5047205;28;20025;-66
2021/12/18 10:26:49;;;;;;;28.90;15.38;;;;;;;5.96;90.20;100938.25;5046811;28;20092;-66
2021/12/18 10:29:24;;;;;;;30.58;15.63;;;;;;;5.91;90.79;100937.19;5035867;28;20029;-66
2021/12/18 10:31:50;;;;;;;36.92;16.30;;;;;;;5.67;90.60;100928.44;5046425;28;20022;-66
2021/12/18 10:34:27;;;;;;;30.92;16.45;;;;;;;5.84;90.47;100933.47;5046739;28;20029;-66
2021/12/18 10:37:12;;;;;;;30.50;15.55;;;;;;;5.83;90.99;100928.19;5046123;28;20025;-66
2021/12/18 10:39:44;;;;;;;27.30;15.45;;;;;;;5.88;90.20;100924.91;5046599;28;20017;-66
2021/12/18 10:42:17;;;;;;;30.80;16.35;;;;;;;5.70;90.81;100918.13;5046576;28;20348;-66
2021/12/18 10:45:20;;;;;;;30.50;14.98;;;;;;;5.58;90.45;100923.78;5044461;28;20026;-66
2021/12/18 10:48:02;;;;;;;31.92;15.32;;;;;;;5.60;90.71;100916.00;5046840;28;20021;-66
2021/12/18 10:50:41;;;;;;;29.98;15.10;;;;;;;5.57;91.22;100911.53;5046008;28;20067;-66
2021/12/18 10:53:12;;;;;;;31.05;15.00;;;;;;;5.52;91.03;100913.09;5046040;28;20033;-66
2021/12/18 10:55:57;;;;;;;24.65;14.15;;;;;;;5.64;90.66;100916.19;5045806;28;20140;-66
2021/12/18 10:58:35;;;;;;;30.63;15.43;;;;;;;5.59;90.88;100893.31;5042617;28;20254;-66
2021/12/18 11:01:03;;;;;;;31.95;16.13;;;;;;;5.71;91.26;100912.94;5045623;28;20025;-66
2021/12/18 11:03:57;;;;;;;28.38;15.02;;;;;;;5.83;90.43;100920.38;5045542;28;20018;-66
2021/12/18 11:06:25;;;;;;;29.85;14.32;;;;;;;5.79;90.09;100918.44;5045256;28;20317;-66
2021/12/18 11:09:14;;;;;;;31.90;16.17;;;;;;;5.79;89.70;100908.00;5045951;28;20033;-66
2021/12/18 11:14:13;;;;;;;28.70;14.68;;;;;;;5.73;90.87;100897.31;5048091;28;20459;-66
2021/12/18 11:16:41;;;;;;;27.65;14.02;;;;;;;5.82;90.84;100900.31;5045012;28;20032;-66
2021/12/18 11:19:13;;;;;;;24.13;12.02;;;;;;;5.92;90.31;100894.56;5047962;28;20029;-66
2021/12/18 11:21:40;;;;;;;;;;;;;;;5.83;90.87;100889.00;5065089;28;20316;-66
2021/12/18 11:24:07;;;;;;;24.58;11.80;;;;;;;5.88;91.36;100888.31;5064020;28;19905;-66
2021/12/18 11:26:57;;;;;;;26.17;13.13;;;;;;;5.84;90.98;100890.78;5051482;28;20025;-66
2021/12/18 11:29:28;;;;;;;23.77;13.15;;;;;;;5.85;90.38;100887.31;5054317;28;20041;-66
2021/12/18 11:31:55;;;;;;;28.88;15.00;;;;;;;5.87;90.83;100885.66;5047062;28;20076;-66
2021/12/18 11:34:20;;;;;;;28.55;13.63;;;;;;;5.93;90.96;100883.25;5054048;28;20349;-66
2021/12/18 11:36:49;;;;;;;24.33;13.55;;;;;;;5.90;91.38;100880.53;5043720;28;20021;-66
2021/12/18 11:39:17;;;;;;;24.10;12.25;;;;;;;6.00;90.51;100877.41;5052229;28;20025;-66
2021/12/18 11:41:51;;;;;;;24.73;12.90;;;;;;;5.99;91.30;100870.41;5045566;28;20218;-66
2021/12/18 11:44:44;;;;;;;24.40;11.82;;;;;;;5.98;90.60;100868.63;5045807;28;20305;-66
2021/12/18 11:47:22;;;;;;;24.42;12.10;;;;;;;6.17;90.55;100882.34;5032712;28;20029;-66
2021/12/18 11:49:47;;;;;;;25.33;12.57;;;;;;;6.17;89.91;100878.88;5037206;28;20029;-66
2021/12/18 11:52:13;;;;;;;22.75;11.82;;;;;;;6.10;90.52;100863.78;5040174;28;20119;-66
2021/12/18 11:54:42;;;;;;;25.52;12.07;;;;;;;6.08;90.36;100865.50;5043939;28;20036;-66
2021/12/18 11:57:08;;;;;;;23.15;13.23;;;;;;;6.03;90.07;100856.59;5045007;28;20081;-66
2021/12/18 11:59:40;;;;;;;27.17;14.30;;;;;;;6.16;90.93;100859.66;5044596;28;20029;-66
2021/12/18 12:02:07;;;;;;;26.20;13.85;;;;;;;6.14;91.60;100860.47;5044500;28;20348;-66
2021/12/18 12:05:05;;;;;;;26.67;14.23;;;;;;;6.21;90.93;100851.97;5038511;28;20443;-66
2021/12/18 12:07:32;;;;;;;34.58;15.18;;;;;;;6.11;91.42;100848.16;5021905;28;20371;-66